sensor_id;sensor_type;location;lat;lon;timestamp;temperature;humidity
52565;DHT22;38460;53.106;7.004;2023-07-30T00:01:58;16.10;99.90
52565;DHT22;38460;53.106;7.004;2023-07-30T00:04:25;16.00;99.90
52565;DHT22;38460;53.106;7.004;2023-07-30T00:06:50;16.00;99.90
52565;DHT22;38460;53.106;7.004;2023-07-30T00:09:16;16.00;99.90
52565;DHT22;38460;53.106;7.004;2023-07-30T00:11:42;15.90;99.90
52565;DHT22;38460;53.106;7.004;2023-07-30T00:14:07;15.90;99.90
52565;DHT22;38460;53.106;7.004;2023-07-30T00:16:33;15.90;99.90
52565;DHT22;38460;53.106;7.004;2023-07-30T00:18:59;15.80;99.90
52565;DHT22;38460;53.106;7.004;2023-07-30T00:21:25;15.80;99.90
52565;DHT22;38460;53.106;7.004;2023-07-30T00:23:50;15.70;99.90
52565;DHT22;38460;53.106;7.004;2023-07-30T00:26:16;15.70;99.90
52565;DHT22;38460;53.106;7.004;2023-07-30T00:28:42;15.70;99.90
52565;DHT22;38460;53.106;7.004;2023-07-30T00:31:08;15.70;99.90
52565;DHT22;38460;53.106;7.004;2023-07-30T00:33:33;15.60;99.90
52565;DHT22;38460;53.106;7.004;2023-07-30T00:35:59;15.60;99.90
52565;DHT22;38460;53.106;7.004;2023-07-30T00:38:25;15.60;99.90
52565;DHT22;38460;53.106;7.004;2023-07-30T00:40:50;15.60;99.90
52565;DHT22;38460;53.106;7.004;2023-07-30T00:43:16;15.60;99.90
52565;DHT22;38460;53.106;7.004;2023-07-30T00:45:43;15.50;99.90
52565;DHT22;38460;53.106;7.004;2023-07-30T00:48:12;15.50;99.90
52565;DHT22;38460;53.106;7.004;2023-07-30T00:50:39;15.50;99.90
52565;DHT22;38460;53.106;7.004;2023-07-30T00:53:07;15.50;99.90
52565;DHT22;38460;53.106;7.004;2023-07-30T00:55:34;15.50;99.90
52565;DHT22;38460;53.106;7.004;2023-07-30T00:58:01;15.40;99.90
52565;DHT22;38460;53.106;7.004;2023-07-30T01:00:27;15.40;99.90
52565;DHT22;38460;53.106;7.004;2023-07-30T01:02:54;15.30;99.90
52565;DHT22;38460;53.106;7.004;2023-07-30T01:05:19;15.40;99.90
52565;DHT22;38460;53.106;7.004;2023-07-30T01:07:45;15.30;99.90
52565;DHT22;38460;53.106;7.004;2023-07-30T01:10:11;15.30;99.90
52565;DHT22;38460;53.106;7.004;2023-07-30T01:12:38;15.30;99.90
52565;DHT22;38460;53.106;7.004;2023-07-30T01:15:05;15.30;99.90
52565;DHT22;38460;53.106;7.004;2023-07-30T01:17:31;15.30;99.90
52565;DHT22;38460;53.106;7.004;2023-07-30T01:19:57;15.20;99.90
52565;DHT22;38460;53.106;7.004;2023-07-30T01:22:23;15.30;99.90
52565;DHT22;38460;53.106;7.004;2023-07-30T01:24:49;15.20;99.90
52565;DHT22;38460;53.106;7.004;2023-07-30T01:27:23;15.20;99.90
52565;DHT22;38460;53.106;7.004;2023-07-30T01:29:53;15.30;99.90
52565;DHT22;38460;53.106;7.004;2023-07-30T01:32:25;15.20;99.90
52565;DHT22;38460;53.106;7.004;2023-07-30T01:34:54;15.20;99.90
52565;DHT22;38460;53.106;7.004;2023-07-30T01:37:20;15.20;99.90
52565;DHT22;38460;53.106;7.004;2023-07-30T01:39:48;15.20;99.90
52565;DHT22;38460;53.106;7.004;2023-07-30T01:42:15;15.20;99.90
52565;DHT22;38460;53.106;7.004;2023-07-30T01:44:40;15.20;99.90
52565;DHT22;38460;53.106;7.004;2023-07-30T01:47:06;15.20;99.90
52565;DHT22;38460;53.106;7.004;2023-07-30T01:49:32;15.20;99.90
52565;DHT22;38460;53.106;7.004;2023-07-30T01:51:58;15.20;99.90
52565;DHT22;38460;53.106;7.004;2023-07-30T01:54:24;15.20;99.90
52565;DHT22;38460;53.106;7.004;2023-07-30T01:56:50;15.20;99.90
52565;DHT22;38460;53.106;7.004;2023-07-30T01:59:16;15.20;99.90
52565;DHT22;38460;53.106;7.004;2023-07-30T02:01:43;15.20;99.90
52565;DHT22;38460;53.106;7.004;2023-07-30T02:04:08;15.20;99.90
52565;DHT22;38460;53.106;7.004;2023-07-30T02:06:34;15.20;99.90
52565;DHT22;38460;53.106;7.004;2023-07-30T02:09:00;15.20;99.90
52565;DHT22;38460;53.106;7.004;2023-07-30T02:11:26;15.20;99.90
52565;DHT22;38460;53.106;7.004;2023-07-30T02:13:52;15.20;99.90
52565;DHT22;38460;53.106;7.004;2023-07-30T02:16:17;15.20;99.90
52565;DHT22;38460;53.106;7.004;2023-07-30T02:18:43;15.20;99.90
52565;DHT22;38460;53.106;7.004;2023-07-30T02:21:09;15.20;99.90
52565;DHT22;38460;53.106;7.004;2023-07-30T02:23:35;15.10;99.90
52565;DHT22;38460;53.106;7.004;2023-07-30T02:26:01;15.10;99.90
52565;DHT22;38460;53.106;7.004;2023-07-30T02:28:26;15.10;99.90
52565;DHT22;38460;53.106;7.004;2023-07-30T02:30:52;15.10;99.90
52565;DHT22;38460;53.106;7.004;2023-07-30T02:33:18;15.10;99.90
52565;DHT22;38460;53.106;7.004;2023-07-30T02:35:44;15.10;99.90
52565;DHT22;38460;53.106;7.004;2023-07-30T02:38:10;15.00;99.90
52565;DHT22;38460;53.106;7.004;2023-07-30T02:40:35;15.00;99.90
52565;DHT22;38460;53.106;7.004;2023-07-30T02:43:01;15.00;99.90
52565;DHT22;38460;53.106;7.004;2023-07-30T02:45:27;14.90;99.90
52565;DHT22;38460;53.106;7.004;2023-07-30T02:47:53;14.90;99.90
52565;DHT22;38460;53.106;7.004;2023-07-30T02:50:19;14.90;99.90
52565;DHT22;38460;53.106;7.004;2023-07-30T02:52:44;14.90;99.90
52565;DHT22;38460;53.106;7.004;2023-07-30T02:55:10;14.90;99.90
52565;DHT22;38460;53.106;7.004;2023-07-30T02:57:36;14.80;99.90
52565;DHT22;38460;53.106;7.004;2023-07-30T03:00:02;14.80;99.90
52565;DHT22;38460;53.106;7.004;2023-07-30T03:02:29;14.80;99.90
52565;DHT22;38460;53.106;7.004;2023-07-30T03:04:55;14.80;99.90
52565;DHT22;38460;53.106;7.004;2023-07-30T03:07:22;14.70;99.90
52565;DHT22;38460;53.106;7.004;2023-07-30T03:09:48;14.70;99.90
52565;DHT22;38460;53.106;7.004;2023-07-30T03:12:14;14.70;99.90
52565;DHT22;38460;53.106;7.004;2023-07-30T03:14:40;14.70;99.90
52565;DHT22;38460;53.106;7.004;2023-07-30T03:17:06;14.60;99.90
52565;DHT22;38460;53.106;7.004;2023-07-30T03:19:32;14.70;99.90
52565;DHT22;38460;53.106;7.004;2023-07-30T03:21:57;14.60;99.90
52565;DHT22;38460;53.106;7.004;2023-07-30T03:24:23;14.60;99.90
52565;DHT22;38460;53.106;7.004;2023-07-30T03:26:49;14.60;99.90
52565;DHT22;38460;53.106;7.004;2023-07-30T03:29:15;14.60;99.90
52565;DHT22;38460;53.106;7.004;2023-07-30T03:31:41;14.60;99.90
52565;DHT22;38460;53.106;7.004;2023-07-30T03:34:07;14.60;99.90
52565;DHT22;38460;53.106;7.004;2023-07-30T03:36:33;14.50;99.90
52565;DHT22;38460;53.106;7.004;2023-07-30T03:38:59;14.60;99.90
52565;DHT22;38460;53.106;7.004;2023-07-30T03:41:25;14.60;99.90
52565;DHT22;38460;53.106;7.004;2023-07-30T03:43:50;14.50;99.90
52565;DHT22;38460;53.106;7.004;2023-07-30T03:46:16;14.50;99.90
52565;DHT22;38460;53.106;7.004;2023-07-30T03:48:42;14.50;99.90
52565;DHT22;38460;53.106;7.004;2023-07-30T03:51:08;14.50;99.90
52565;DHT22;38460;53.106;7.004;2023-07-30T03:53:34;14.50;99.90
52565;DHT22;38460;53.106;7.004;2023-07-30T03:56:00;14.50;99.90
52565;DHT22;38460;53.106;7.004;2023-07-30T03:58:25;14.50;99.90
52565;DHT22;38460;53.106;7.004;2023-07-30T04:00:51;14.60;99.90
52565;DHT22;38460;53.106;7.004;2023-07-30T04:03:17;14.50;99.90
52565;DHT22;38460;53.106;7.004;2023-07-30T04:05:43;14.50;99.90
52565;DHT22;38460;53.106;7.004;2023-07-30T04:08:08;14.50;99.90
52565;DHT22;38460;53.106;7.004;2023-07-30T04:10:34;14.50;99.90
52565;DHT22;38460;53.106;7.004;2023-07-30T04:13:00;14.50;99.90
52565;DHT22;38460;53.106;7.004;2023-07-30T04:15:26;14.50;99.90
52565;DHT22;38460;53.106;7.004;2023-07-30T04:17:51;14.50;99.90
52565;DHT22;38460;53.106;7.004;2023-07-30T04:20:17;14.50;99.90
52565;DHT22;38460;53.106;7.004;2023-07-30T04:22:43;14.50;99.90
52565;DHT22;38460;53.106;7.004;2023-07-30T04:25:10;14.50;99.90
52565;DHT22;38460;53.106;7.004;2023-07-30T04:27:38;14.50;99.90
52565;DHT22;38460;53.106;7.004;2023-07-30T04:30:07;14.50;99.90
52565;DHT22;38460;53.106;7.004;2023-07-30T04:32:33;14.50;99.90
52565;DHT22;38460;53.106;7.004;2023-07-30T04:34:59;14.60;99.90
52565;DHT22;38460;53.106;7.004;2023-07-30T04:37:24;14.60;99.90
52565;DHT22;38460;53.106;7.004;2023-07-30T04:39:50;14.50;99.90
52565;DHT22;38460;53.106;7.004;2023-07-30T04:42:16;14.60;99.90
52565;DHT22;38460;53.106;7.004;2023-07-30T04:44:42;14.60;99.90
52565;DHT22;38460;53.106;7.004;2023-07-30T04:47:07;14.60;99.90
52565;DHT22;38460;53.106;7.004;2023-07-30T04:49:33;14.60;99.90
52565;DHT22;38460;53.106;7.004;2023-07-30T04:51:59;14.60;99.90
52565;DHT22;38460;53.106;7.004;2023-07-30T04:54:25;14.70;99.90
52565;DHT22;38460;53.106;7.004;2023-07-30T04:56:51;14.70;99.90
52565;DHT22;38460;53.106;7.004;2023-07-30T04:59:16;14.70;99.90
52565;DHT22;38460;53.106;7.004;2023-07-30T05:01:42;14.80;99.90
52565;DHT22;38460;53.106;7.004;2023-07-30T05:04:08;14.80;99.90
52565;DHT22;38460;53.106;7.004;2023-07-30T05:06:33;14.90;99.90
52565;DHT22;38460;53.106;7.004;2023-07-30T05:08:59;14.90;99.90
52565;DHT22;38460;53.106;7.004;2023-07-30T05:11:25;14.90;99.90
52565;DHT22;38460;53.106;7.004;2023-07-30T05:13:51;15.00;99.90
52565;DHT22;38460;53.106;7.004;2023-07-30T05:16:16;15.00;99.90
52565;DHT22;38460;53.106;7.004;2023-07-30T05:18:42;15.00;99.90
52565;DHT22;38460;53.106;7.004;2023-07-30T05:21:08;15.10;99.90
52565;DHT22;38460;53.106;7.004;2023-07-30T05:23:33;15.10;99.90
52565;DHT22;38460;53.106;7.004;2023-07-30T05:25:59;15.20;99.90
52565;DHT22;38460;53.106;7.004;2023-07-30T05:28:26;15.20;99.90
52565;DHT22;38460;53.106;7.004;2023-07-30T05:30:52;15.30;99.90
52565;DHT22;38460;53.106;7.004;2023-07-30T05:33:17;15.20;99.90
52565;DHT22;38460;53.106;7.004;2023-07-30T05:35:43;15.30;99.90
52565;DHT22;38460;53.106;7.004;2023-07-30T05:38:09;15.30;99.90
52565;DHT22;38460;53.106;7.004;2023-07-30T05:40:35;15.40;99.90
52565;DHT22;38460;53.106;7.004;2023-07-30T05:43:01;15.40;99.90
52565;DHT22;38460;53.106;7.004;2023-07-30T05:45:28;15.50;99.90
52565;DHT22;38460;53.106;7.004;2023-07-30T05:47:54;15.50;99.90
52565;DHT22;38460;53.106;7.004;2023-07-30T05:50:19;15.50;99.90
52565;DHT22;38460;53.106;7.004;2023-07-30T05:52:45;15.60;99.90
52565;DHT22;38460;53.106;7.004;2023-07-30T05:55:11;15.60;99.90
52565;DHT22;38460;53.106;7.004;2023-07-30T05:57:37;15.70;99.90
52565;DHT22;38460;53.106;7.004;2023-07-30T06:00:02;15.70;99.90
52565;DHT22;38460;53.106;7.004;2023-07-30T06:02:29;15.70;99.90
52565;DHT22;38460;53.106;7.004;2023-07-30T06:04:54;15.80;99.90
52565;DHT22;38460;53.106;7.004;2023-07-30T06:07:20;15.80;99.90
52565;DHT22;38460;53.106;7.004;2023-07-30T06:09:46;15.80;99.90
52565;DHT22;38460;53.106;7.004;2023-07-30T06:12:11;15.90;99.90
52565;DHT22;38460;53.106;7.004;2023-07-30T06:14:37;15.90;99.90
52565;DHT22;38460;53.106;7.004;2023-07-30T06:17:03;16.00;99.90
52565;DHT22;38460;53.106;7.004;2023-07-30T06:19:29;16.00;99.90
52565;DHT22;38460;53.106;7.004;2023-07-30T06:21:55;16.00;99.90
52565;DHT22;38460;53.106;7.004;2023-07-30T06:24:20;16.10;99.90
52565;DHT22;38460;53.106;7.004;2023-07-30T06:26:46;16.10;99.90
52565;DHT22;38460;53.106;7.004;2023-07-30T06:29:12;16.10;99.90
52565;DHT22;38460;53.106;7.004;2023-07-30T06:31:37;16.10;99.90
52565;DHT22;38460;53.106;7.004;2023-07-30T06:34:03;16.10;99.90
52565;DHT22;38460;53.106;7.004;2023-07-30T06:36:30;16.20;99.90
52565;DHT22;38460;53.106;7.004;2023-07-30T06:38:55;16.20;99.90
52565;DHT22;38460;53.106;7.004;2023-07-30T06:41:21;16.20;99.90
52565;DHT22;38460;53.106;7.004;2023-07-30T06:43:47;16.30;99.90
52565;DHT22;38460;53.106;7.004;2023-07-30T06:46:13;16.30;99.90
52565;DHT22;38460;53.106;7.004;2023-07-30T06:48:39;16.30;99.90
52565;DHT22;38460;53.106;7.004;2023-07-30T06:51:09;16.30;99.90
52565;DHT22;38460;53.106;7.004;2023-07-30T06:53:35;16.30;99.90
52565;DHT22;38460;53.106;7.004;2023-07-30T06:56:01;16.40;99.90
52565;DHT22;38460;53.106;7.004;2023-07-30T06:58:27;16.40;99.90
52565;DHT22;38460;53.106;7.004;2023-07-30T07:00:53;16.40;99.90
52565;DHT22;38460;53.106;7.004;2023-07-30T07:03:18;16.40;99.90
52565;DHT22;38460;53.106;7.004;2023-07-30T07:05:44;16.40;99.90
52565;DHT22;38460;53.106;7.004;2023-07-30T07:08:10;16.50;99.90
52565;DHT22;38460;53.106;7.004;2023-07-30T07:10:36;16.50;99.90
52565;DHT22;38460;53.106;7.004;2023-07-30T07:13:02;16.50;99.90
52565;DHT22;38460;53.106;7.004;2023-07-30T07:15:27;16.50;99.90
52565;DHT22;38460;53.106;7.004;2023-07-30T07:17:53;16.60;99.90
52565;DHT22;38460;53.106;7.004;2023-07-30T07:20:19;16.60;99.90
52565;DHT22;38460;53.106;7.004;2023-07-30T07:22:44;16.70;99.90
52565;DHT22;38460;53.106;7.004;2023-07-30T07:25:10;16.70;99.90
52565;DHT22;38460;53.106;7.004;2023-07-30T07:27:36;16.80;99.90
52565;DHT22;38460;53.106;7.004;2023-07-30T07:30:02;16.90;99.90
52565;DHT22;38460;53.106;7.004;2023-07-30T07:32:28;16.90;99.90
52565;DHT22;38460;53.106;7.004;2023-07-30T07:34:54;17.00;99.90
52565;DHT22;38460;53.106;7.004;2023-07-30T07:37:20;17.10;99.90
52565;DHT22;38460;53.106;7.004;2023-07-30T07:39:45;17.20;99.90
52565;DHT22;38460;53.106;7.004;2023-07-30T07:42:11;17.20;99.90
52565;DHT22;38460;53.106;7.004;2023-07-30T07:44:37;17.20;99.90
52565;DHT22;38460;53.106;7.004;2023-07-30T07:47:06;17.30;99.90
52565;DHT22;38460;53.106;7.004;2023-07-30T07:49:32;17.30;99.90
52565;DHT22;38460;53.106;7.004;2023-07-30T07:51:58;17.30;99.90
52565;DHT22;38460;53.106;7.004;2023-07-30T07:54:23;17.40;99.90
52565;DHT22;38460;53.106;7.004;2023-07-30T07:56:49;17.50;99.90
52565;DHT22;38460;53.106;7.004;2023-07-30T07:59:15;17.50;99.90
52565;DHT22;38460;53.106;7.004;2023-07-30T08:01:41;17.60;99.90
52565;DHT22;38460;53.106;7.004;2023-07-30T08:04:06;17.60;99.90
52565;DHT22;38460;53.106;7.004;2023-07-30T08:06:32;17.70;99.90
52565;DHT22;38460;53.106;7.004;2023-07-30T08:08:58;17.70;99.90
52565;DHT22;38460;53.106;7.004;2023-07-30T08:11:24;17.70;99.90
52565;DHT22;38460;53.106;7.004;2023-07-30T08:13:49;17.80;99.90
52565;DHT22;38460;53.106;7.004;2023-07-30T08:16:15;17.90;99.90
52565;DHT22;38460;53.106;7.004;2023-07-30T08:18:41;18.00;99.90
52565;DHT22;38460;53.106;7.004;2023-07-30T08:21:07;18.10;99.90
52565;DHT22;38460;53.106;7.004;2023-07-30T08:23:32;18.20;99.90
52565;DHT22;38460;53.106;7.004;2023-07-30T08:25:58;18.20;99.90
52565;DHT22;38460;53.106;7.004;2023-07-30T08:28:24;18.30;99.90
52565;DHT22;38460;53.106;7.004;2023-07-30T08:30:49;18.40;99.90
52565;DHT22;38460;53.106;7.004;2023-07-30T08:33:15;18.50;99.90
52565;DHT22;38460;53.106;7.004;2023-07-30T08:35:41;18.50;99.90
52565;DHT22;38460;53.106;7.004;2023-07-30T08:38:07;18.60;99.90
52565;DHT22;38460;53.106;7.004;2023-07-30T08:40:32;18.60;99.90
52565;DHT22;38460;53.106;7.004;2023-07-30T08:42:59;18.70;99.90
52565;DHT22;38460;53.106;7.004;2023-07-30T08:45:25;18.80;99.90
52565;DHT22;38460;53.106;7.004;2023-07-30T08:47:51;18.90;99.90
52565;DHT22;38460;53.106;7.004;2023-07-30T08:50:17;18.90;99.90
52565;DHT22;38460;53.106;7.004;2023-07-30T08:52:44;18.90;99.90
52565;DHT22;38460;53.106;7.004;2023-07-30T08:55:10;18.80;99.90
52565;DHT22;38460;53.106;7.004;2023-07-30T08:57:37;18.80;99.90
52565;DHT22;38460;53.106;7.004;2023-07-30T09:00:06;18.70;99.90
52565;DHT22;38460;53.106;7.004;2023-07-30T09:02:41;18.50;99.90
52565;DHT22;38460;53.106;7.004;2023-07-30T09:05:09;18.30;99.90
52565;DHT22;38460;53.106;7.004;2023-07-30T09:07:34;18.10;99.90
52565;DHT22;38460;53.106;7.004;2023-07-30T09:10:00;17.90;99.90
52565;DHT22;38460;53.106;7.004;2023-07-30T09:12:31;17.70;99.90
52565;DHT22;38460;53.106;7.004;2023-07-30T09:14:58;17.50;99.90
52565;DHT22;38460;53.106;7.004;2023-07-30T09:17:24;17.30;99.90
52565;DHT22;38460;53.106;7.004;2023-07-30T09:19:50;17.20;99.90
52565;DHT22;38460;53.106;7.004;2023-07-30T09:22:26;17.10;99.90
52565;DHT22;38460;53.106;7.004;2023-07-30T09:24:56;17.00;99.90
52565;DHT22;38460;53.106;7.004;2023-07-30T09:27:24;17.00;99.90
52565;DHT22;38460;53.106;7.004;2023-07-30T09:29:55;17.00;99.90
52565;DHT22;38460;53.106;7.004;2023-07-30T09:32:29;16.90;99.90
52565;DHT22;38460;53.106;7.004;2023-07-30T09:34:55;16.80;99.90
52565;DHT22;38460;53.106;7.004;2023-07-30T09:37:21;16.90;99.90
52565;DHT22;38460;53.106;7.004;2023-07-30T09:39:48;16.80;99.90
52565;DHT22;38460;53.106;7.004;2023-07-30T09:42:14;16.70;99.90
52565;DHT22;38460;53.106;7.004;2023-07-30T09:44:39;16.70;99.90
52565;DHT22;38460;53.106;7.004;2023-07-30T09:47:09;16.60;99.90
52565;DHT22;38460;53.106;7.004;2023-07-30T09:49:37;16.60;99.90
52565;DHT22;38460;53.106;7.004;2023-07-30T09:52:04;16.50;99.90
52565;DHT22;38460;53.106;7.004;2023-07-30T09:54:33;16.50;99.90
52565;DHT22;38460;53.106;7.004;2023-07-30T09:56:59;16.40;99.90
52565;DHT22;38460;53.106;7.004;2023-07-30T09:59:25;16.30;99.90
52565;DHT22;38460;53.106;7.004;2023-07-30T10:01:52;16.30;99.90
52565;DHT22;38460;53.106;7.004;2023-07-30T10:04:22;16.20;99.90
52565;DHT22;38460;53.106;7.004;2023-07-30T10:07:15;16.20;99.90
52565;DHT22;38460;53.106;7.004;2023-07-30T10:09:43;16.20;99.90
52565;DHT22;38460;53.106;7.004;2023-07-30T10:12:16;16.10;99.90
52565;DHT22;38460;53.106;7.004;2023-07-30T10:14:42;16.10;99.90
52565;DHT22;38460;53.106;7.004;2023-07-30T10:17:10;16.10;99.90
52565;DHT22;38460;53.106;7.004;2023-07-30T10:19:36;16.10;99.90
52565;DHT22;38460;53.106;7.004;2023-07-30T10:24:40;16.00;99.90
52565;DHT22;38460;53.106;7.004;2023-07-30T10:27:07;16.00;99.90
52565;DHT22;38460;53.106;7.004;2023-07-30T10:29:39;16.00;99.90
52565;DHT22;38460;53.106;7.004;2023-07-30T10:32:07;15.90;99.90
52565;DHT22;38460;53.106;7.004;2023-07-30T10:34:47;16.00;99.90
52565;DHT22;38460;53.106;7.004;2023-07-30T10:37:20;16.00;99.90
52565;DHT22;38460;53.106;7.004;2023-07-30T10:39:49;15.90;99.90
52565;DHT22;38460;53.106;7.004;2023-07-30T10:42:15;16.00;99.90
52565;DHT22;38460;53.106;7.004;2023-07-30T10:44:44;16.00;99.90
52565;DHT22;38460;53.106;7.004;2023-07-30T10:47:11;16.00;99.90
52565;DHT22;38460;53.106;7.004;2023-07-30T10:49:40;16.00;99.90
52565;DHT22;38460;53.106;7.004;2023-07-30T10:52:07;16.10;99.90
52565;DHT22;38460;53.106;7.004;2023-07-30T10:54:39;16.10;99.90
52565;DHT22;38460;53.106;7.004;2023-07-30T10:57:05;16.20;99.90
52565;DHT22;38460;53.106;7.004;2023-07-30T10:59:37;16.20;99.90
52565;DHT22;38460;53.106;7.004;2023-07-30T11:02:04;16.40;99.90
52565;DHT22;38460;53.106;7.004;2023-07-30T11:04:34;16.50;99.90
52565;DHT22;38460;53.106;7.004;2023-07-30T11:07:00;16.70;99.90
52565;DHT22;38460;53.106;7.004;2023-07-30T11:09:27;16.70;99.90
52565;DHT22;38460;53.106;7.004;2023-07-30T11:11:55;16.80;99.90
52565;DHT22;38460;53.106;7.004;2023-07-30T11:14:25;16.90;99.90
52565;DHT22;38460;53.106;7.004;2023-07-30T11:16:53;16.90;99.90
52565;DHT22;38460;53.106;7.004;2023-07-30T11:19:19;17.00;99.90
52565;DHT22;38460;53.106;7.004;2023-07-30T11:21:49;17.10;99.90
52565;DHT22;38460;53.106;7.004;2023-07-30T11:24:15;17.10;99.90
52565;DHT22;38460;53.106;7.004;2023-07-30T11:26:41;17.10;99.90
52565;DHT22;38460;53.106;7.004;2023-07-30T11:29:17;17.20;99.90
52565;DHT22;38460;53.106;7.004;2023-07-30T11:31:44;17.10;99.90
52565;DHT22;38460;53.106;7.004;2023-07-30T11:34:11;17.10;99.90
52565;DHT22;38460;53.106;7.004;2023-07-30T11:36:38;17.10;99.90
52565;DHT22;38460;53.106;7.004;2023-07-30T11:39:04;17.00;99.90
52565;DHT22;38460;53.106;7.004;2023-07-30T11:41:31;17.00;99.90
52565;DHT22;38460;53.106;7.004;2023-07-30T11:43:57;16.90;99.90
52565;DHT22;38460;53.106;7.004;2023-07-30T11:46:22;16.90;99.90
52565;DHT22;38460;53.106;7.004;2023-07-30T11:48:51;16.90;99.90
52565;DHT22;38460;53.106;7.004;2023-07-30T11:51:22;17.00;99.90
52565;DHT22;38460;53.106;7.004;2023-07-30T11:53:57;17.10;99.90
52565;DHT22;38460;53.106;7.004;2023-07-30T11:56:31;17.30;99.90
52565;DHT22;38460;53.106;7.004;2023-07-30T11:59:07;17.50;99.90
52565;DHT22;38460;53.106;7.004;2023-07-30T12:01:34;17.70;99.90
52565;DHT22;38460;53.106;7.004;2023-07-30T12:04:02;17.90;99.90
52565;DHT22;38460;53.106;7.004;2023-07-30T12:06:50;18.10;99.90
52565;DHT22;38460;53.106;7.004;2023-07-30T12:09:21;18.30;99.90
52565;DHT22;38460;53.106;7.004;2023-07-30T12:12:00;18.50;99.90
52565;DHT22;38460;53.106;7.004;2023-07-30T12:17:15;18.90;99.90
52565;DHT22;38460;53.106;7.004;2023-07-30T12:19:41;18.90;99.90
52565;DHT22;38460;53.106;7.004;2023-07-30T12:22:07;18.80;99.90
52565;DHT22;38460;53.106;7.004;2023-07-30T12:24:33;18.70;99.90
52565;DHT22;38460;53.106;7.004;2023-07-30T12:26:59;18.70;99.90
52565;DHT22;38460;53.106;7.004;2023-07-30T12:29:26;18.80;99.90
52565;DHT22;38460;53.106;7.004;2023-07-30T12:31:52;18.90;99.90
52565;DHT22;38460;53.106;7.004;2023-07-30T12:34:19;19.00;99.90
52565;DHT22;38460;53.106;7.004;2023-07-30T12:36:45;18.90;99.90
52565;DHT22;38460;53.106;7.004;2023-07-30T12:39:11;18.80;99.90
52565;DHT22;38460;53.106;7.004;2023-07-30T12:41:37;18.70;99.90
52565;DHT22;38460;53.106;7.004;2023-07-30T12:44:03;18.50;99.90
52565;DHT22;38460;53.106;7.004;2023-07-30T12:46:30;18.40;99.90
52565;DHT22;38460;53.106;7.004;2023-07-30T12:48:57;18.20;99.90
52565;DHT22;38460;53.106;7.004;2023-07-30T12:51:27;18.00;99.90
52565;DHT22;38460;53.106;7.004;2023-07-30T12:53:53;17.90;99.90
52565;DHT22;38460;53.106;7.004;2023-07-30T12:56:19;17.70;99.90
52565;DHT22;38460;53.106;7.004;2023-07-30T12:58:44;17.40;99.90
52565;DHT22;38460;53.106;7.004;2023-07-30T13:01:10;17.20;99.90
52565;DHT22;38460;53.106;7.004;2023-07-30T13:03:36;17.10;99.90
52565;DHT22;38460;53.106;7.004;2023-07-30T13:06:02;17.00;99.90
52565;DHT22;38460;53.106;7.004;2023-07-30T13:08:28;17.10;99.90
52565;DHT22;38460;53.106;7.004;2023-07-30T13:10:53;17.10;99.90
52565;DHT22;38460;53.106;7.004;2023-07-30T13:13:19;17.00;99.90
52565;DHT22;38460;53.106;7.004;2023-07-30T13:15:45;16.90;99.90
52565;DHT22;38460;53.106;7.004;2023-07-30T13:18:10;16.90;99.90
52565;DHT22;38460;53.106;7.004;2023-07-30T13:20:36;16.90;99.90
52565;DHT22;38460;53.106;7.004;2023-07-30T13:23:02;16.90;99.90
52565;DHT22;38460;53.106;7.004;2023-07-30T13:25:28;16.90;99.90
52565;DHT22;38460;53.106;7.004;2023-07-30T13:27:54;17.00;99.90
52565;DHT22;38460;53.106;7.004;2023-07-30T13:30:20;17.00;99.90
52565;DHT22;38460;53.106;7.004;2023-07-30T13:32:45;17.00;99.90
52565;DHT22;38460;53.106;7.004;2023-07-30T13:35:11;17.10;99.90
52565;DHT22;38460;53.106;7.004;2023-07-30T13:37:37;17.30;99.90
52565;DHT22;38460;53.106;7.004;2023-07-30T13:40:03;17.50;99.90
52565;DHT22;38460;53.106;7.004;2023-07-30T13:42:29;17.80;99.90
52565;DHT22;38460;53.106;7.004;2023-07-30T13:44:54;18.10;99.90
52565;DHT22;38460;53.106;7.004;2023-07-30T13:47:20;18.10;99.90
52565;DHT22;38460;53.106;7.004;2023-07-30T13:49:46;18.20;99.90
52565;DHT22;38460;53.106;7.004;2023-07-30T13:52:13;18.20;99.90
52565;DHT22;38460;53.106;7.004;2023-07-30T13:54:39;18.20;99.90
52565;DHT22;38460;53.106;7.004;2023-07-30T13:57:05;18.10;99.90
52565;DHT22;38460;53.106;7.004;2023-07-30T13:59:31;18.10;99.90
52565;DHT22;38460;53.106;7.004;2023-07-30T14:01:57;18.20;99.90
52565;DHT22;38460;53.106;7.004;2023-07-30T14:04:22;18.40;99.90
52565;DHT22;38460;53.106;7.004;2023-07-30T14:06:48;18.70;99.90
52565;DHT22;38460;53.106;7.004;2023-07-30T14:09:14;19.00;99.90
52565;DHT22;38460;53.106;7.004;2023-07-30T14:11:40;19.40;99.90
52565;DHT22;38460;53.106;7.004;2023-07-30T14:14:08;19.60;99.90
52565;DHT22;38460;53.106;7.004;2023-07-30T14:16:34;19.80;99.90
52565;DHT22;38460;53.106;7.004;2023-07-30T14:19:00;20.10;99.90
52565;DHT22;38460;53.106;7.004;2023-07-30T14:21:25;20.30;99.90
52565;DHT22;38460;53.106;7.004;2023-07-30T14:23:51;20.40;99.90
52565;DHT22;38460;53.106;7.004;2023-07-30T14:26:17;20.60;99.90
52565;DHT22;38460;53.106;7.004;2023-07-30T14:28:43;20.80;99.90
52565;DHT22;38460;53.106;7.004;2023-07-30T14:31:08;20.90;99.90
52565;DHT22;38460;53.106;7.004;2023-07-30T14:33:34;21.00;99.90
52565;DHT22;38460;53.106;7.004;2023-07-30T14:36:00;21.00;99.90
52565;DHT22;38460;53.106;7.004;2023-07-30T14:38:26;21.10;99.90
52565;DHT22;38460;53.106;7.004;2023-07-30T14:40:52;21.00;99.90
52565;DHT22;38460;53.106;7.004;2023-07-30T14:43:18;20.80;99.90
52565;DHT22;38460;53.106;7.004;2023-07-30T14:45:43;20.80;99.90
52565;DHT22;38460;53.106;7.004;2023-07-30T14:48:09;20.80;99.90
52565;DHT22;38460;53.106;7.004;2023-07-30T14:50:35;21.00;99.90
52565;DHT22;38460;53.106;7.004;2023-07-30T14:53:01;21.20;99.90
52565;DHT22;38460;53.106;7.004;2023-07-30T14:55:26;21.40;99.90
52565;DHT22;38460;53.106;7.004;2023-07-30T14:57:52;21.30;99.90
52565;DHT22;38460;53.106;7.004;2023-07-30T15:00:18;21.20;99.90
52565;DHT22;38460;53.106;7.004;2023-07-30T15:02:44;21.00;99.90
52565;DHT22;38460;53.106;7.004;2023-07-30T15:05:10;20.70;99.90
52565;DHT22;38460;53.106;7.004;2023-07-30T15:07:36;20.50;99.90
52565;DHT22;38460;53.106;7.004;2023-07-30T15:10:01;20.30;99.90
52565;DHT22;38460;53.106;7.004;2023-07-30T15:12:28;20.20;99.90
52565;DHT22;38460;53.106;7.004;2023-07-30T15:14:53;20.00;99.90
52565;DHT22;38460;53.106;7.004;2023-07-30T15:17:19;19.80;99.90
52565;DHT22;38460;53.106;7.004;2023-07-30T15:19:45;19.60;99.90
52565;DHT22;38460;53.106;7.004;2023-07-30T15:22:13;19.40;99.90
52565;DHT22;38460;53.106;7.004;2023-07-30T15:24:39;19.30;99.90
52565;DHT22;38460;53.106;7.004;2023-07-30T15:27:04;19.30;99.90
52565;DHT22;38460;53.106;7.004;2023-07-30T15:29:30;19.30;99.90
52565;DHT22;38460;53.106;7.004;2023-07-30T15:31:56;19.30;99.90